Station ORIN7 - 8652587 - Oregon Inlet Marina, NC Image indicating link to RSS feed of recent meteorological observations for station ORIN7


Conditions at ORIN7 as of
(6:30 am EDT)
1030 GMT on 09/01/2026:
     

Click on the graph icon in the table below to see a time series plot of the last five days of that observation.

5-day plot - Wind Direction Wind Direction (WDIR):WNW ( 290 deg true )
5-day plot - Wind Speed Wind Speed (WSPD): 6.0 kts
5-day plot - Wind Gust Wind Gust (GST): 8.0 kts
5-day plot - Atmospheric Pressure Atmospheric Pressure (PRES):30.06 in
5-day plot - Air Temperature Air Temperature (ATMP): 78.1 °F
5-day plot - Water Temperature Water Temperature (WTMP): 83.5 °F
5-day plot - Wind Speed at 10 Meters Wind Speed at 10 meters (WSPD10M): 7.8 kts
5-day plot - Wind Speed at 20 Meters Wind Speed at 20 meters (WSPD20M): 7.8 kts
5-day plot -  Wind Speed, Wind Gust and Atmospheric Pressure Combined plot of Wind Speed, Gust, and Air Pressure
NOS Water Level Observation Network Water Level
Previous observations
TIME
(EDT)
5-day plot - Wind Direction
WDIR
 
5-day plot - Wind Speed
WSPD
kts
5-day plot - Wind Gust
GST
kts
5-day plot - Wave Height
WVHT
ft
5-day plot - Dominant Wave Period
DPD
sec
5-day plot - Average Wave Period
APD
sec
5-day plot - Mean Wave Direction
MWD
 
5-day plot - Atmospheric Pressure
PRES
in
5-day plot - Pressure Tendency
PTDY
in
5-day plot - Air Temperature
ATMP
°F
5-day plot - Water Temperature
WTMP
°F
5-day plot - Dew Point
DEWP
°F
5-day plot - Salinity
SAL
psu
5-day plot - Visibility
VIS
nmi
5-day plot - Tide (above MLLW)
TIDE
ft
2026-09-01 06:24 amWNW 6.0 8.0----30.06- 78.1 83.7----
2026-09-01 06:18 amWNW 5.1 8.0----30.06-- 83.7----
2026-09-01 06:12 amWNW 5.1 7.0----30.06-- 83.7----
2026-09-01 06:06 amWNW 5.1 7.0----30.06-- 83.8----
2026-09-01 06:00 amWNW 5.1 7.0----30.06- 78.4 83.7----
2026-09-01 05:54 amWNW 6.0 8.0----30.06- 78.4 83.8----
2026-09-01 05:48 am W 5.1 7.0----30.06- 78.4 83.8----
2026-09-01 05:42 amWNW 6.0 8.0----30.06- 78.4 83.7----
2026-09-01 05:36 amWNW 7.0 8.0----30.06- 78.4 83.7----
2026-09-01 05:30 amWNW 6.0 8.0----30.06- 78.4 84.0----
2026-09-01 05:24 am W 6.0 8.0----30.06- 78.6 83.8----
2026-09-01 05:18 am W 7.0 8.9----30.06-- 83.8----
2026-09-01 05:12 am W 6.0 8.0----30.06-- 83.8----
2026-09-01 05:06 am W 6.0 8.9----30.06-- 83.8----
2026-09-01 05:00 am W 7.0 8.0----30.06-0.02 78.8 84.0----
2026-09-01 04:54 amWNW 5.1 7.0----30.07- 79.0 84.4----
2026-09-01 04:48 amWNW 5.1 6.0----30.06-- 84.4----
2026-09-01 04:42 am W 4.1 8.0----30.06-- 84.4----
2026-09-01 04:36 am W 6.0 8.0----30.07-- 84.4----
2026-09-01 04:30 am W 6.0 8.9----30.07- 79.3 84.4----
2026-09-01 04:24 am W 6.0 8.9----30.07- 79.5 84.6----
2026-09-01 04:18 am W 7.0 8.0----30.07-- 84.6----
2026-09-01 04:12 am W 5.1 7.0----30.07-- 84.6----
2026-09-01 04:06 am W 6.0 8.0----30.08-- 84.6----
2026-09-01 04:00 am W 6.0 7.0----30.08-0.02 79.9 84.6----
2026-09-01 03:54 am W 4.1 7.0----30.07- 79.7 84.6----
2026-09-01 03:48 am W 5.1 7.0----30.07- 79.7 84.6----
2026-09-01 03:42 am W 6.0 8.0----30.07- 79.9 84.7----
2026-09-01 03:36 am W 7.0 8.0----30.07- 79.9 84.7----
2026-09-01 03:30 am W 5.1 6.0----30.07- 79.5 84.7----
2026-09-01 03:24 am W 5.1 6.0----30.07- 79.5 84.7----
2026-09-01 03:18 am W 5.1 6.0----30.08- 79.5 84.9----
2026-09-01 03:12 am W 5.1 7.0----30.08- 79.5 84.9----
2026-09-01 03:06 am W 6.0 7.0----30.08- 79.5 84.9----
2026-09-01 03:00 am W 5.1 7.0------ 79.5 84.9----
2026-09-01 02:54 am W 5.1 7.0------ 79.5 85.1----
2026-09-01 02:48 am W 5.1 7.0----30.08- 79.9 85.1----
2026-09-01 02:42 am W 5.1 7.0----30.08- 80.1 85.1----
2026-09-01 02:36 am W 5.1 7.0----30.09- 80.1 85.1----
2026-09-01 02:30 am W 4.1 6.0----30.09-- 85.1----
2026-09-01 02:24 am W 5.1 7.0----30.09-- 85.3----
2026-09-01 02:18 am W 5.1 7.0----30.09-- 85.3----
2026-09-01 02:12 am W 5.1 6.0----30.09-- 85.3----
2026-09-01 02:06 amWSW 7.0 8.0----30.09-- 85.3----
2026-09-01 02:00 amWSW 6.0 7.0----30.09-0.01 81.0 85.5----
2026-09-01 01:54 amWSW 6.0 7.0----30.09- 80.8 85.5----
2026-09-01 01:48 amWSW 6.0 7.0----30.09- 80.8 85.5----
2026-09-01 01:42 am SW 6.0 7.0----30.09- 81.0 85.5----
2026-09-01 01:36 am SW 6.0 7.0----30.09- 81.0 85.5----
2026-09-01 01:30 am SW 6.0 7.0----30.09- 81.0 85.5----
2026-09-01 01:24 amWSW 5.1 6.0----30.09- 80.8 85.5----
2026-09-01 01:18 amWSW 5.1 5.1----30.09-- 85.5----
2026-09-01 01:12 amWSW 4.1 5.1----30.09-- 85.5----
2026-09-01 01:06 am SW 4.1 5.1----30.09-- 85.5----
2026-09-01 01:00 am SW 5.1 6.0----30.09+0.00 80.6 85.5----
2026-09-01 12:54 am SW 5.1 6.0----30.09- 80.8 85.5----
2026-09-01 12:48 am SW 4.1 5.1----30.09- 80.8 85.5----
2026-09-01 12:42 am SW 5.1 7.0----30.09- 80.8 85.5----
2026-09-01 12:36 am SW 6.0 7.0----30.09- 80.8 85.5----
2026-09-01 12:30 amSSW 6.0 7.0----30.09- 81.0 85.5----
2026-09-01 12:24 amSSW 5.1 8.0----30.09- 81.0 85.5----
2026-09-01 12:18 am SW 6.0 7.0----30.09-- 85.5----
2026-09-01 12:12 am SW 7.0 7.0----30.09-- 85.5----
2026-09-01 12:06 am SW 6.0 7.0----30.09-- 85.5----
2026-09-01 12:00 amSSW 5.1 8.0----30.09-0.01 80.8 85.5----
2026-08-31 11:54 pmSSW 6.0 7.0----30.09- 80.8 85.3----
2026-08-31 11:48 pmSSW 6.0 7.0----30.09-- 85.3----
2026-08-31 11:42 pmSSW 6.0 7.0----30.09-- 85.3----
2026-08-31 11:36 pmSSW 7.0 8.9----30.09-- 85.3----
2026-08-31 11:30 pmSSW 7.0 8.0----30.09- 81.0 85.3----
2026-08-31 11:24 pmSSW 7.0 8.0----30.09- 81.0 85.3----
2026-08-31 11:18 pmSSW 5.1 6.0------- 85.3----
2026-08-31 11:12 pm S 4.1 6.0------- 85.1----
2026-08-31 11:06 pmSSW 4.1 6.0------- 85.1----
2026-08-31 11:00 pmSSW 6.0 7.0----30.10+0.02 79.9 85.1----
2026-08-31 10:54 pm S 4.1 5.1----30.09- 79.0 85.1----
2026-08-31 10:48 pmSSE 2.9 4.1----30.09- 78.4 84.9----
2026-08-31 10:42 pmSSE 2.9 4.1----30.10- 78.3 84.9----
2026-08-31 10:36 pm S 2.9 5.1----30.10- 78.3 84.9----
2026-08-31 10:30 pmSSE 4.1 5.1----30.09- 78.3 84.7----
2026-08-31 10:24 pmSSE 5.1 6.0----30.10- 78.4 84.7----
2026-08-31 10:18 pmSSE 4.1 5.1----30.10-- 84.6----
2026-08-31 10:12 pmSSE 4.1 5.1----30.10-- 84.6----
2026-08-31 10:06 pmSSE 2.9 5.1----30.10-- 84.6----
2026-08-31 10:00 pmSSE 4.1 5.1----30.10+0.01 78.6 84.4----
2026-08-31 09:54 pmSSE 2.9 4.1----30.10- 78.6 84.2----
2026-08-31 09:48 pm SE 2.9 5.1----30.10- 78.6 84.2----
2026-08-31 09:42 pmSSE 4.1 5.1----30.10- 78.6 84.0----
2026-08-31 09:36 pmSSE 2.9 5.1----30.10- 78.8 84.0----
2026-08-31 09:30 pmSSE 4.1 5.1----30.09- 78.8 83.8----
2026-08-31 09:24 pmSSE 4.1 5.1----30.10- 78.8 83.8----
2026-08-31 09:18 pmSSE 2.9 5.1----30.10-- 83.7----
2026-08-31 09:12 pmSSE 4.1 6.0----30.10-- 83.5----
2026-08-31 09:06 pmSSE 5.1 5.1----30.09-- 83.5----
2026-08-31 09:00 pmSSE 4.1 5.1----30.10+0.01 79.0 83.3----
2026-08-31 08:54 pmSSE 2.9 5.1----30.09- 79.0 83.3----
2026-08-31 08:48 pmSSE 4.1 5.1----30.09-- 83.1----
2026-08-31 08:42 pmSSE 4.1 7.0----30.09-- 83.1----
2026-08-31 08:36 pm S 5.1 6.0----30.09-- 82.9----
2026-08-31 08:30 pmSSE 4.1 6.0----30.09- 79.0 82.9----
2026-08-31 08:24 pmSSE 4.1 6.0----30.09- 79.0 82.9----
2026-08-31 08:18 pmSSE 2.9 6.0----30.09-- 82.8----
2026-08-31 08:12 pmSSE 5.1 6.0----30.08-- 82.8----
2026-08-31 08:06 pmSSE 4.1 5.1----30.08-- 82.8----
2026-08-31 08:00 pmSSE 2.9 4.1----30.08-0.01 79.2 82.8----
2026-08-31 07:54 pmSSE 2.9 5.1----30.08- 79.3 82.6----
2026-08-31 07:48 pm SE 2.9 6.0----30.08-- 82.6----
2026-08-31 07:42 pm SE 5.1 7.0----30.08-- 82.6----
2026-08-31 07:36 pm SE 4.1 6.0----30.08-- 82.6----
2026-08-31 06:48 pmESE 4.1 5.1----30.09- 81.5 82.4----
2026-08-31 06:42 pm SE 2.9 5.1----30.09- 81.5 82.2----
2026-08-31 06:36 pmESE 2.9 6.0----30.09- 81.5 82.2----
2026-08-31 06:30 pm SE 5.1 7.0----30.09- 81.3 82.2----
2026-08-31 06:24 pm SE 5.1 6.0----30.09- 81.7 82.2----
2026-08-31 06:18 pmSSE 4.1 8.0----30.09- 81.7 82.2----
2026-08-31 06:12 pmSSE 5.1 7.0----30.09- 81.7 82.2----
2026-08-31 06:06 pmSSE 4.1 6.0----30.09- 81.9 82.2----
2026-08-31 06:00 pm SE 6.0 7.0----30.09-0.02 81.7 82.2----
2026-08-31 05:54 pm SE 2.9 7.0----30.09- 82.0 82.2----
2026-08-31 05:48 pm SE 5.1 7.0----30.09- 82.0 82.2----
2026-08-31 05:42 pm SE 5.1 7.0----30.09- 81.9 82.2----
2026-08-31 05:36 pmESE 4.1 6.0----30.09- 82.0 82.2----
2026-08-31 05:30 pmESE 5.1 7.0----30.09- 81.9 82.2----
2026-08-31 05:24 pmESE 4.1 7.0----30.09- 81.9 82.4----
2026-08-31 05:18 pmESE 4.1 6.0----30.09-- 82.4----
2026-08-31 05:12 pmESE 4.1 6.0----30.09-- 82.2----
2026-08-31 05:06 pm E 4.1 7.0----30.09-- 82.2----
2026-08-31 05:00 pm E 4.1 6.0----30.09-0.03 81.9 82.2----
2026-08-31 04:54 pm E 5.1 7.0----30.09- 81.9 82.0----
2026-08-31 04:48 pmESE 5.1 7.0----30.09- 81.9 82.0----
2026-08-31 04:42 pm E 6.0 8.0----30.09- 81.7 82.0----
2026-08-31 04:36 pmESE 5.1 7.0----30.09- 82.2 82.0----
2026-08-31 04:30 pm E 6.0 7.0----30.09- 82.0 81.7----
2026-08-31 04:24 pmESE 2.9 6.0----30.09- 82.8 81.7----
2026-08-31 04:18 pm E 5.1 6.0----30.09-- 81.7----
2026-08-31 04:12 pm E 5.1 7.0----30.09-- 81.7----
2026-08-31 04:06 pm E 6.0 8.0----30.09-- 81.7----
2026-08-31 04:00 pmESE 4.1 6.0----30.09-0.04 82.8 81.7----
2026-08-31 03:54 pmESE 2.9 6.0----30.09- 82.6 81.7----
2026-08-31 03:48 pmESE 5.1 7.0----30.09- 82.4 81.7----
2026-08-31 03:42 pmESE 6.0 8.9----30.09- 82.0 81.7----
2026-08-31 03:36 pm SE 6.0 8.0----30.09- 82.0 81.7----
2026-08-31 03:30 pmESE 6.0 8.0----30.09- 82.0 81.5----
2026-08-31 03:24 pmESE 6.0 8.0----30.10- 82.0 81.5----
2026-08-31 03:18 pm SE 5.1 7.0----30.10-- 81.5----
2026-08-31 03:12 pmESE 5.1 8.0----30.10-- 81.3----
2026-08-31 03:06 pm E 6.0 8.0----30.10-- 81.3----
2026-08-31 03:00 pmESE 4.1 7.0----30.10-0.03 82.8 81.3----
2026-08-31 02:54 pm SE 4.1 7.0----30.11- 82.6 81.3----
2026-08-31 02:48 pmESE 4.1 7.0----30.11- 82.0 81.3----
2026-08-31 02:42 pmESE 6.0 8.0----30.11- 82.0 81.3----
2026-08-31 02:36 pmESE 5.1 6.0----30.11- 82.2 81.3----
2026-08-31 02:30 pmSSE 4.1 8.0----30.11- 81.7 81.3----
2026-08-31 02:24 pm SE 4.1 8.0----30.11- 82.2 81.3----
2026-08-31 02:18 pmSSE 5.1 8.0----30.11-- 81.3----
2026-08-31 02:12 pmESE 4.1 7.0----30.11-- 81.3----
2026-08-31 02:06 pmESE 5.1 7.0----30.12-- 81.3----
2026-08-31 02:00 pm SE 4.1 7.0----30.12-0.02 81.7 81.3----
2026-08-31 01:54 pm SE 5.1 8.0----30.12- 81.5 81.3----
2026-08-31 01:48 pmESE 5.1 7.0----30.12-- 81.3----
2026-08-31 01:42 pm E 5.1 8.0----30.12-- 81.3----
2026-08-31 01:36 pm E 6.0 8.0----30.12-- 81.3----
2026-08-31 01:30 pm E 5.1 7.0----30.12- 81.1 81.3----
2026-08-31 01:24 pm E 4.1 7.0----30.13- 81.5 81.3----
2026-08-31 01:18 pm E 5.1 7.0----30.13-- 81.3----
2026-08-31 01:12 pm E 6.0 8.0----30.13-- 81.3----
2026-08-31 01:06 pm E 5.1 7.0----30.13-- 81.1----
2026-08-31 01:00 pm E 4.1 6.0----30.13+0.00 81.0 81.1----
2026-08-31 12:54 pm E 5.1 7.0----30.13- 80.8 81.1----
2026-08-31 12:48 pm E 5.1 8.0----30.13- 80.6 81.1----
2026-08-31 12:42 pm E 6.0 7.0----30.14- 80.4 81.1----
2026-08-31 12:36 pmENE 6.0 7.0----30.14- 80.6 81.1----
2026-08-31 12:30 pmENE 6.0 8.0----30.14- 80.2 81.1----
2026-08-31 12:24 pm E 5.1 7.0----30.14- 80.4 81.1----
2026-08-31 12:18 pm E 5.1 7.0----30.14-- 81.1----
2026-08-31 12:12 pmENE 6.0 7.0----30.14-- 81.1----
2026-08-31 12:06 pmENE 6.0 7.0----30.14-- 81.1----
2026-08-31 12:00 pmENE 6.0 8.0----30.14+0.02 80.1 81.1----
2026-08-31 11:54 am E 5.1 7.0----30.14- 80.2 81.1----
2026-08-31 11:48 am NE 6.0 7.0----30.14- 80.1 81.1----
2026-08-31 11:42 am NE 6.0 7.0----30.14- 80.1 81.1----
2026-08-31 11:36 am NE 5.1 8.0----30.14- 80.1 81.1----
2026-08-31 11:30 am NE 6.0 7.0----30.14- 79.9 81.1----
2026-08-31 11:24 am NE 6.0 7.0----30.14- 80.4 81.1----
2026-08-31 11:18 am NE 5.1 8.0----30.14-- 81.1----
2026-08-31 11:12 am NE 6.0 8.0----30.14-- 81.1----
2026-08-31 11:06 am NE 5.1 8.0----30.14-- 81.0----
2026-08-31 11:00 amNNE 5.1 8.0----30.14+0.04 80.8 81.0----
2026-08-31 10:54 am NE 7.0 8.0----30.14- 80.2 81.0----
2026-08-31 10:48 am NE 6.0 8.0----30.14- 80.1 81.0----
2026-08-31 10:42 amENE 6.0 8.9----30.14- 79.9 81.0----
2026-08-31 10:36 am NE 6.0 8.0----30.14- 80.1 81.0----
2026-08-31 10:30 am NE 6.0 7.0----30.14- 80.1 81.0----
2026-08-31 10:24 amENE 6.0 7.0----30.14- 79.7 81.0----
2026-08-31 10:18 amENE 6.0 8.0----30.13-- 81.0----
2026-08-31 10:12 am NE 5.1 7.0----30.13-- 81.0----
2026-08-31 10:06 amENE 6.0 8.0----30.13-- 80.8----
2026-08-31 10:00 am NE 6.0 7.0----30.12+0.02 79.7 80.8----
2026-08-31 09:54 am NE 5.1 7.0----30.13- 79.5 80.8----
2026-08-31 09:48 am NE 6.0 8.0----30.12-- 80.8----
2026-08-31 09:42 amNNE 7.0 8.0----30.12-- 80.8----
2026-08-31 09:36 am NE 5.1 7.0----30.12-- 80.8----
2026-08-31 09:30 am NE 6.0 8.0----30.12- 79.3 80.8----
2026-08-31 09:24 am NE 6.0 8.0----30.12- 79.3 80.8----
2026-08-31 09:18 amNNE 5.1 7.0----30.12-- 80.8----
2026-08-31 09:12 am N 5.1 8.0----30.12-- 80.8----
2026-08-31 09:06 amNNE 6.0 8.0----30.11-- 80.8----
2026-08-31 09:00 am N 6.0 8.9----30.11+0.01 79.3 80.8----
2026-08-31 08:54 amNNE 6.0 8.9----30.11- 79.3 80.8----
2026-08-31 08:48 am N 6.0 8.0----30.11-- 80.8----
2026-08-31 08:42 am N 7.0 8.9----30.11-- 80.8----
2026-08-31 08:36 amNNW 5.1 6.0----30.11-- 80.8----
2026-08-31 08:30 amNNW 5.1 6.0----30.11- 78.8 80.8----
2026-08-31 08:24 am NW 5.1 6.0----30.11- 78.8 80.8----
2026-08-31 08:18 am NW 4.1 5.1----30.11-- 80.8----
2026-08-31 08:12 am NW 4.1 5.1----30.11-- 80.8----
2026-08-31 08:06 amWNW 4.1 5.1----30.11-- 80.8----
2026-08-31 08:00 am NW 2.9 5.1----30.11+0.01 78.6 80.8----
2026-08-31 07:54 am NW 5.1 6.0----30.11- 78.3 80.8----
2026-08-31 07:48 amNNW 4.1 6.0----30.11-- 80.8----
2026-08-31 07:42 am NW 5.1 6.0----30.11-- 80.8----
2026-08-31 07:36 amNNW 5.1 6.0----30.11-- 80.8----
2026-08-31 07:30 amNNW 4.1 6.0----30.11- 77.9 80.8----
2026-08-31 07:24 am NW 4.1 6.0----30.11- 77.7 80.8----
2026-08-31 07:18 amNNW 4.1 6.0----30.11-- 80.8----
2026-08-31 07:12 am NW 5.1 6.0----30.11-- 80.8----
2026-08-31 07:06 am NW 4.1 5.1----30.11-- 80.8----
2026-08-31 07:00 am NW 2.9 4.1----30.11+0.01 77.0 80.8----
2026-08-31 06:54 am NW 2.9 4.1----30.11- 77.0 80.8----